createdAt,value
2024-01-24T00:04:59.338Z,0.32
2024-01-24T00:10:01.566Z,0.40
2024-01-24T00:15:03.939Z,0.52
2024-01-24T00:20:06.655Z,0.52
2024-01-24T00:25:08.831Z,0.35
2024-01-24T00:30:11.077Z,0.63
2024-01-24T00:35:12.932Z,0.32
2024-01-24T00:40:14.881Z,0.45
2024-01-24T00:45:16.870Z,0.45
2024-01-24T00:50:18.915Z,0.43
2024-01-24T00:55:20.742Z,0.38
2024-01-24T01:00:22.620Z,0.45
2024-01-24T01:05:26.184Z,0.20
2024-01-24T01:10:28.041Z,0.20
2024-01-24T01:15:29.895Z,0.25
2024-01-24T01:20:33.108Z,0.20
2024-01-24T01:25:34.971Z,0.20
2024-01-24T01:30:36.870Z,0.30
2024-01-24T01:35:38.746Z,0.20
2024-01-24T01:40:40.548Z,0.30
2024-01-24T01:45:43.412Z,0.40
2024-01-24T01:50:45.461Z,0.30
2024-01-24T01:55:47.348Z,0.30
2024-01-24T02:00:51.324Z,0.45
2024-01-24T02:05:53.334Z,0.22
2024-01-24T02:10:57.069Z,0.30
2024-01-24T02:16:04.822Z,0.40
2024-01-24T02:21:06.682Z,0.40
2024-01-24T02:26:09.048Z,0.30
2024-01-24T02:31:10.892Z,0.40
2024-01-24T02:36:16.068Z,0.38
2024-01-24T02:41:20.382Z,0.50
2024-01-24T02:46:22.276Z,0.50
2024-01-24T02:51:25.516Z,0.60
2024-01-24T02:56:27.539Z,0.50
2024-01-24T03:01:29.476Z,0.40
2024-01-24T03:06:31.385Z,0.60
2024-01-24T03:11:33.223Z,0.70
2024-01-24T03:16:37.075Z,0.57
2024-01-24T03:21:40.244Z,0.80
2024-01-24T03:26:42.349Z,0.70
2024-01-24T03:31:44.904Z,0.88
2024-01-24T03:36:46.730Z,0.70
2024-01-24T03:41:48.606Z,0.60
2024-01-24T03:46:50.560Z,1.02
2024-01-24T03:51:52.541Z,0.77
2024-01-24T03:56:54.358Z,0.80
2024-01-24T04:01:56.200Z,0.73
2024-01-24T04:06:58.177Z,0.90
2024-01-24T04:12:00.044Z,0.80
2024-01-24T04:17:01.843Z,0.75
2024-01-24T04:22:04.267Z,0.70
2024-01-24T04:27:07.742Z,0.50
2024-01-24T04:32:10.774Z,0.50
2024-01-24T04:37:12.657Z,0.50
2024-01-24T04:42:16.950Z,0.70
2024-01-24T04:47:19.168Z,0.77
2024-01-24T04:52:20.989Z,0.90
2024-01-24T04:57:22.862Z,0.60
2024-01-24T05:02:24.797Z,0.75
2024-01-24T05:07:26.667Z,1.20
2024-01-24T05:12:28.479Z,0.75
2024-01-24T05:17:30.333Z,0.80
2024-01-24T05:22:32.152Z,0.60
2024-01-24T05:27:34.030Z,0.60
2024-01-24T05:32:35.952Z,0.88
2024-01-24T05:37:37.863Z,0.50
2024-01-24T05:42:39.856Z,0.70
2024-01-24T05:47:44.715Z,0.40
2024-01-24T05:52:53.217Z,0.65
2024-01-24T05:57:55.158Z,0.40
2024-01-24T06:02:57.123Z,0.63
2024-01-24T06:07:59.044Z,0.50
2024-01-24T06:13:00.931Z,0.55
2024-01-24T06:18:03.726Z,0.55
2024-01-24T06:23:05.625Z,0.60
2024-01-24T06:28:07.549Z,0.65
2024-01-24T06:33:10.532Z,0.50
2024-01-24T06:38:12.461Z,0.63
2024-01-24T06:43:19.554Z,0.50
2024-01-24T06:48:21.722Z,0.50
2024-01-24T06:53:23.639Z,0.40
2024-01-24T06:58:25.488Z,0.60
2024-01-24T07:03:27.550Z,0.40
2024-01-24T07:08:29.464Z,0.50
2024-01-24T07:13:31.360Z,0.52
2024-01-24T07:18:33.318Z,0.50
2024-01-24T07:23:35.244Z,0.40
2024-01-24T07:28:37.118Z,0.50
2024-01-24T07:33:39.599Z,0.50
2024-01-24T07:38:41.963Z,0.20
2024-01-24T07:43:44.000Z,0.40
2024-01-24T07:48:46.194Z,0.25
2024-01-24T07:53:48.619Z,0.47
2024-01-24T07:58:51.015Z,0.30
2024-01-24T08:03:53.450Z,0.30
2024-01-24T08:08:56.133Z,0.47
2024-01-24T08:13:58.767Z,0.20
2024-01-24T08:19:02.585Z,0.50
2024-01-24T08:24:05.173Z,0.20
2024-01-24T08:29:07.135Z,0.50
2024-01-24T08:34:09.011Z,0.40
2024-01-24T08:39:13.040Z,0.30
2024-01-24T08:44:15.595Z,0.20
2024-01-24T08:49:18.030Z,0.40
2024-01-24T08:54:20.000Z,0.30
2024-01-24T08:59:22.201Z,0.30
2024-01-24T09:04:24.932Z,0.30
2024-01-24T09:09:27.128Z,0.30
2024-01-24T09:14:29.096Z,0.22
2024-01-24T09:19:31.143Z,0.30
2024-01-24T09:24:33.145Z,0.30
2024-01-24T09:29:35.043Z,0.30
2024-01-24T09:34:37.179Z,0.50
2024-01-24T09:39:39.309Z,0.40
2024-01-24T09:44:42.233Z,0.50
2024-01-24T09:49:45.557Z,0.73
2024-01-24T09:54:47.695Z,1.25
2024-01-24T09:59:49.826Z,0.60
2024-01-24T10:04:53.362Z,0.93
2024-01-24T10:10:10.923Z,0.80
2024-01-24T10:15:13.458Z,0.75
2024-01-24T10:20:15.319Z,1.00
2024-01-24T10:25:18.168Z,0.68
2024-01-24T10:30:20.822Z,0.82
2024-01-24T10:35:24.320Z,1.25
2024-01-24T10:40:26.559Z,0.70
2024-01-24T10:45:31.861Z,1.42
2024-01-24T10:50:35.832Z,0.90
2024-01-24T10:55:39.492Z,0.70
2024-01-24T11:00:42.878Z,0.95
2024-01-24T11:05:49.536Z,1.25
2024-01-24T11:10:52.341Z,0.98
2024-01-24T11:15:57.267Z,1.20
2024-01-24T11:21:00.809Z,2.33
2024-01-24T11:26:03.364Z,1.98
2024-01-24T11:31:05.960Z,2.42
2024-01-24T11:36:13.950Z,1.60
2024-01-24T11:41:22.036Z,1.63
2024-01-24T11:46:24.500Z,1.80
2024-01-24T11:51:27.757Z,1.00
2024-01-24T11:56:29.674Z,1.27
2024-01-24T12:01:31.951Z,1.70
2024-01-24T12:06:37.027Z,1.17
2024-01-24T12:11:39.074Z,1.58
2024-01-24T12:16:41.273Z,1.63
2024-01-24T12:21:43.967Z,1.20
2024-01-24T12:26:45.940Z,2.55
2024-01-24T12:31:49.476Z,1.33
2024-01-24T12:36:52.914Z,1.38
2024-01-24T12:41:55.794Z,2.00
2024-01-24T12:46:59.314Z,2.00
2024-01-24T12:52:01.697Z,2.03
2024-01-24T12:57:05.104Z,1.58
2024-01-24T13:02:07.251Z,1.90
2024-01-24T13:07:09.435Z,2.20
2024-01-24T13:12:11.942Z,1.73
2024-01-24T13:17:14.164Z,1.88
2024-01-24T13:22:16.164Z,2.45
2024-01-24T13:27:18.123Z,2.20
2024-01-24T13:32:20.897Z,1.67
2024-01-24T13:37:22.851Z,2.70
2024-01-24T13:42:24.870Z,2.80
2024-01-24T13:47:26.852Z,2.53
2024-01-24T13:52:28.896Z,2.10
2024-01-24T13:57:31.189Z,1.92
2024-01-24T14:02:33.563Z,2.55
2024-01-24T14:07:35.698Z,2.63
2024-01-24T14:12:38.222Z,2.45
2024-01-24T14:17:40.220Z,2.38
2024-01-24T14:22:42.103Z,2.28
2024-01-24T14:27:44.526Z,2.17
2024-01-24T14:32:46.460Z,2.35
2024-01-24T14:37:48.510Z,2.55
2024-01-24T14:42:51.627Z,2.75
2024-01-24T14:47:53.504Z,3.58
2024-01-24T14:52:56.021Z,2.20
2024-01-24T14:57:58.598Z,2.10
2024-01-24T15:03:01.155Z,2.88
2024-01-24T15:08:03.751Z,4.60
2024-01-24T15:13:05.978Z,2.75
2024-01-24T15:18:08.078Z,4.85
2024-01-24T15:23:11.930Z,3.58
2024-01-24T15:28:14.195Z,3.70
2024-01-24T15:33:16.119Z,3.63
2024-01-24T15:38:18.936Z,2.22
2024-01-24T15:43:21.513Z,2.72
2024-01-24T15:48:23.551Z,4.05
2024-01-24T15:53:25.516Z,2.80
2024-01-24T15:58:27.342Z,3.45
2024-01-24T16:03:33.899Z,4.10
2024-01-24T16:08:36.484Z,2.83
2024-01-24T16:13:38.867Z,3.67
2024-01-24T16:18:41.249Z,3.38
2024-01-24T16:23:43.095Z,3.65
2024-01-24T16:28:44.963Z,4.35
2024-01-24T16:33:46.869Z,3.05
2024-01-24T16:38:48.789Z,2.83
2024-01-24T16:43:51.761Z,2.85
2024-01-24T16:48:56.542Z,3.80
2024-01-24T16:53:58.555Z,2.90
2024-01-24T16:59:00.378Z,4.18
2024-01-24T17:04:02.962Z,4.55
2024-01-24T17:09:04.853Z,2.80
2024-01-24T17:14:06.708Z,3.58
2024-01-24T17:19:09.527Z,3.97
2024-01-24T17:24:13.820Z,3.42
2024-01-24T17:29:15.903Z,4.75
2024-01-24T17:34:17.857Z,4.88
2024-01-24T17:39:19.835Z,2.38
2024-01-24T17:44:21.735Z,2.80
2024-01-24T17:49:24.244Z,3.30
2024-01-24T17:54:28.017Z,3.10
2024-01-24T17:59:30.673Z,2.80
2024-01-24T18:04:33.412Z,2.50
2024-01-24T18:09:35.562Z,2.75
2024-01-24T18:14:37.492Z,3.20
2024-01-24T18:19:39.953Z,3.00
2024-01-24T18:24:43.574Z,3.25
2024-01-24T18:29:47.042Z,3.83
2024-01-24T18:34:49.392Z,2.83
2024-01-24T18:39:51.345Z,2.92
2024-01-24T18:44:53.789Z,2.55
2024-01-24T18:49:59.864Z,3.25
2024-01-24T18:55:04.201Z,3.45
2024-01-24T19:00:07.399Z,3.90
2024-01-24T19:05:14.010Z,3.15
2024-01-24T19:10:21.597Z,3.40
2024-01-24T19:15:28.282Z,2.25
2024-01-24T19:20:31.171Z,3.25
2024-01-24T19:25:33.311Z,4.05
2024-01-24T19:30:35.388Z,3.78
2024-01-24T19:35:40.057Z,2.80
2024-01-24T19:40:42.723Z,2.53
2024-01-24T19:45:45.105Z,2.75
2024-01-24T19:50:47.475Z,3.63
2024-01-24T19:55:50.044Z,3.40
2024-01-24T20:00:52.266Z,2.83
2024-01-24T20:05:54.308Z,2.80
2024-01-24T20:10:57.155Z,3.60
2024-01-24T20:15:59.701Z,2.97
2024-01-24T20:21:02.482Z,3.78
2024-01-24T20:26:06.799Z,3.45
2024-01-24T20:31:09.241Z,2.90
2024-01-24T20:36:12.055Z,4.65
2024-01-24T20:41:14.608Z,4.10
2024-01-24T20:46:17.053Z,3.20
2024-01-24T20:51:19.006Z,2.90
2024-01-24T20:56:21.027Z,2.78
2024-01-24T21:01:23.419Z,2.45
2024-01-24T21:06:29.003Z,3.17
2024-01-24T21:11:31.256Z,2.80
2024-01-24T21:16:33.177Z,3.22
2024-01-24T21:21:35.312Z,3.45
2024-01-24T21:26:37.337Z,3.63
2024-01-24T21:31:39.422Z,2.75
2024-01-24T21:36:47.631Z,4.03
2024-01-24T21:41:51.009Z,3.08
2024-01-24T21:46:53.232Z,3.83
2024-01-24T21:51:55.111Z,3.47
2024-01-24T21:56:56.979Z,2.60
2024-01-24T22:01:58.861Z,3.85
2024-01-24T22:07:00.755Z,3.53
2024-01-24T22:12:02.604Z,4.00
2024-01-24T22:17:04.653Z,2.80
2024-01-24T22:22:06.642Z,3.15
2024-01-24T22:27:08.950Z,2.90
2024-01-24T22:32:10.801Z,2.22
2024-01-24T22:37:12.773Z,3.70
2024-01-24T22:42:14.667Z,3.67
2024-01-24T22:47:17.991Z,3.72
2024-01-24T22:52:20.006Z,2.00
2024-01-24T22:57:22.001Z,2.90
2024-01-24T23:02:25.720Z,3.72
2024-01-24T23:07:27.681Z,3.72
2024-01-24T23:12:29.618Z,4.90
2024-01-24T23:17:31.592Z,2.83
2024-01-24T23:22:33.563Z,2.33
2024-01-24T23:27:35.462Z,2.92
2024-01-24T23:32:37.328Z,3.00
2024-01-24T23:37:39.329Z,3.05
2024-01-24T23:42:41.360Z,2.95
2024-01-24T23:47:44.461Z,2.78
2024-01-24T23:52:46.773Z,2.78
2024-01-24T23:57:48.664Z,2.50
